createdAt,value
2019-06-01T00:00:15.984Z,68.42
2019-06-01T00:02:52.569Z,68.82
2019-06-01T00:05:17.610Z,68.42
2019-06-01T00:07:47.069Z,68.64
2019-06-01T00:10:16.279Z,69.04
2019-06-01T00:12:45.470Z,69.49
2019-06-01T00:15:15.002Z,69.90
2019-06-01T00:17:44.213Z,70.33
2019-06-01T00:20:13.432Z,69.94
2019-06-01T00:22:43.285Z,69.67
2019-06-01T00:25:12.693Z,70.71
2019-06-01T00:27:42.511Z,70.68
2019-06-01T00:30:26.231Z,70.11
2019-06-01T00:32:43.063Z,70.41
2019-06-01T00:35:12.338Z,69.87
2019-06-01T00:37:45.522Z,69.41
2019-06-01T00:40:13.090Z,69.16
2019-06-01T00:42:42.293Z,69.35
2019-06-01T00:45:12.522Z,69.43
2019-06-01T00:47:42.681Z,69.41
2019-06-01T00:50:12.299Z,69.46
2019-06-01T00:52:41.485Z,69.31
2019-06-01T00:55:10.750Z,69.00
2019-06-01T00:57:39.923Z,69.00
2019-06-01T01:00:42.916Z,69.48
2019-06-01T01:02:58.323Z,69.79
2019-06-01T01:05:27.495Z,69.56
2019-06-01T01:07:56.687Z,69.27
2019-06-01T01:10:25.857Z,69.17
2019-06-01T01:13:11.379Z,69.14
2019-06-01T01:15:40.572Z,69.27
2019-06-01T01:18:09.891Z,69.23
2019-06-01T01:20:39.240Z,69.26
2019-06-01T01:23:08.893Z,69.14
2019-06-01T01:25:39.054Z,68.88
2019-06-01T01:28:08.221Z,69.55
2019-06-01T01:30:37.446Z,69.55
2019-06-01T01:33:06.965Z,69.74
2019-06-01T01:35:36.138Z,69.29
2019-06-01T01:38:05.481Z,68.96
2019-06-01T01:40:34.661Z,69.21
2019-06-01T01:43:03.868Z,69.92
2019-06-01T01:45:33.104Z,69.58
2019-06-01T01:48:02.313Z,69.61
2019-06-01T01:50:31.516Z,69.84
2019-06-01T01:53:00.693Z,70.15
2019-06-01T01:55:30.220Z,70.48
2019-06-01T01:57:59.603Z,70.34
2019-06-01T02:00:46.433Z,70.67
2019-06-01T02:03:15.912Z,70.93
2019-06-01T02:05:45.725Z,70.66
2019-06-01T02:08:14.974Z,70.88
2019-06-01T02:10:44.178Z,70.58
2019-06-01T02:13:13.386Z,70.18
2019-06-01T02:15:43.495Z,69.90
2019-06-01T02:18:12.737Z,70.76
2019-06-01T02:20:41.931Z,70.65
2019-06-01T02:23:11.367Z,70.13
2019-06-01T02:25:40.574Z,70.72
2019-06-01T02:28:10.481Z,70.54
2019-06-01T02:30:39.675Z,70.30
2019-06-01T02:33:08.856Z,70.25
2019-06-01T02:35:38.037Z,69.88
2019-06-01T02:38:07.334Z,70.23
2019-06-01T02:40:37.029Z,69.91
2019-06-01T02:43:07.111Z,69.68
2019-06-01T02:45:36.627Z,69.73
2019-06-01T02:48:06.590Z,70.29
2019-06-01T02:50:36.132Z,70.48
2019-06-01T02:53:06.928Z,70.44
2019-06-01T02:55:36.071Z,71.07
2019-06-01T02:58:06.740Z,71.16
2019-06-01T03:00:48.202Z,71.04
2019-06-01T03:03:18.075Z,71.00
2019-06-01T03:05:49.302Z,71.61
2019-06-01T03:08:20.322Z,72.43
2019-06-01T03:10:52.643Z,72.74
2019-06-01T03:13:25.025Z,72.78
2019-06-01T03:16:05.071Z,72.71
2019-06-01T03:18:35.030Z,73.19
2019-06-01T03:21:06.261Z,73.26
2019-06-01T03:23:35.874Z,72.76
2019-06-01T03:26:08.725Z,72.71
2019-06-01T03:28:41.013Z,72.32
2019-06-01T03:31:10.751Z,72.44
2019-06-01T03:33:40.104Z,72.15
2019-06-01T03:36:09.362Z,72.60
2019-06-01T03:38:38.702Z,72.36
2019-06-01T03:41:08.216Z,73.36
2019-06-01T03:43:37.567Z,73.70
2019-06-01T03:46:06.862Z,73.70
2019-06-01T03:48:36.110Z,73.43
2019-06-01T03:51:05.683Z,72.94
2019-06-01T03:53:34.933Z,72.90
2019-06-01T03:56:04.952Z,73.15
2019-06-01T03:58:34.190Z,73.23
2019-06-01T04:01:03.413Z,72.92
2019-06-01T04:03:32.594Z,72.69
2019-06-01T04:06:01.773Z,72.35
2019-06-01T04:08:31.895Z,72.19
2019-06-01T04:11:01.440Z,72.65
2019-06-01T04:13:30.739Z,72.57
2019-06-01T04:15:59.931Z,72.09
2019-06-01T04:18:29.127Z,72.11
2019-06-01T04:20:58.258Z,71.82
2019-06-01T04:23:27.443Z,71.71
2019-06-01T04:25:56.625Z,71.51
2019-06-01T04:28:26.978Z,71.16
2019-06-01T04:30:56.206Z,71.11
2019-06-01T04:33:25.403Z,70.99
2019-06-01T04:35:54.605Z,71.11
2019-06-01T04:38:23.800Z,71.06
2019-06-01T04:40:52.976Z,70.96
2019-06-01T04:43:22.183Z,71.17
2019-06-01T04:45:52.623Z,71.67
2019-06-01T04:48:21.829Z,71.77
2019-06-01T04:50:51.476Z,71.59
2019-06-01T04:53:20.604Z,71.79
2019-06-01T04:55:49.823Z,71.73
2019-06-01T04:58:19.144Z,71.57
2019-06-01T05:00:48.715Z,71.57
2019-06-01T05:03:17.899Z,71.47
2019-06-01T05:05:47.101Z,71.47
2019-06-01T05:08:16.307Z,71.24
2019-06-01T05:10:45.547Z,71.14
2019-06-01T05:13:15.663Z,71.88
2019-06-01T05:15:44.966Z,71.99
2019-06-01T05:18:14.306Z,71.57
2019-06-01T05:20:43.897Z,71.23
2019-06-01T05:23:13.085Z,71.18
2019-06-01T05:25:42.568Z,71.23
2019-06-01T05:28:11.754Z,71.11
2019-06-01T05:30:40.964Z,71.50
2019-06-01T05:33:27.547Z,71.81
2019-06-01T05:35:41.067Z,72.06
2019-06-01T05:38:10.769Z,71.95
2019-06-01T05:40:39.925Z,71.90
2019-06-01T05:43:13.851Z,71.63
2019-06-01T05:45:39.981Z,71.66
2019-06-01T05:48:11.991Z,71.33
2019-06-01T05:50:40.093Z,71.36
2019-06-01T05:53:10.422Z,71.95
2019-06-01T05:55:39.859Z,71.79
2019-06-01T05:58:09.044Z,71.88
2019-06-01T06:00:41.803Z,71.51
2019-06-01T06:03:14.663Z,71.32
2019-06-01T06:05:42.325Z,71.05
2019-06-01T06:08:12.800Z,71.14
2019-06-01T06:10:43.062Z,71.27
2019-06-01T06:13:13.334Z,71.07
2019-06-01T06:15:42.565Z,70.89
2019-06-01T06:18:13.685Z,70.79
2019-06-01T06:20:42.896Z,70.65
2019-06-01T06:23:12.257Z,70.79
2019-06-01T06:25:41.621Z,70.85
2019-06-01T06:28:10.730Z,70.79
2019-06-01T06:30:39.904Z,70.56
2019-06-01T06:33:09.088Z,70.31
2019-06-01T06:35:38.274Z,69.91
2019-06-01T06:38:07.490Z,69.44
2019-06-01T06:40:36.669Z,69.21
2019-06-01T06:43:18.688Z,69.28
2019-06-01T06:45:38.830Z,68.99
2019-06-01T06:48:08.027Z,68.00
2019-06-01T06:50:37.649Z,67.37
2019-06-01T06:53:06.814Z,66.40
2019-06-01T06:55:36.357Z,65.51
2019-06-01T06:58:05.546Z,64.82
2019-06-01T07:00:34.750Z,64.73
2019-06-01T07:03:03.964Z,64.71
2019-06-01T07:05:33.139Z,64.14
2019-06-01T07:08:02.319Z,63.27
2019-06-01T07:10:31.531Z,62.73
2019-06-01T07:13:00.757Z,62.37
2019-06-01T07:15:29.986Z,61.89
2019-06-01T07:17:59.165Z,61.60
2019-06-01T07:20:28.427Z,61.09
2019-06-01T07:22:57.624Z,61.58
2019-06-01T07:25:26.955Z,61.06
2019-06-01T07:27:56.177Z,61.57
2019-06-01T07:30:28.516Z,60.99
2019-06-01T07:32:57.670Z,61.06
2019-06-01T07:35:26.850Z,61.59
2019-06-01T07:37:56.041Z,61.38
2019-06-01T07:40:25.257Z,60.41
2019-06-01T07:42:54.416Z,60.21
2019-06-01T07:45:24.778Z,60.48
2019-06-01T07:47:54.005Z,60.33
2019-06-01T07:50:23.930Z,59.27
2019-06-01T07:52:53.160Z,58.70
2019-06-01T07:55:23.512Z,58.35
2019-06-01T07:57:52.834Z,57.68
2019-06-01T08:00:22.948Z,57.97
2019-06-01T08:02:52.903Z,57.81
2019-06-01T08:05:23.810Z,59.04
2019-06-01T08:07:58.561Z,59.84
2019-06-01T08:10:27.922Z,60.01
2019-06-01T08:12:57.133Z,60.10
2019-06-01T08:15:27.489Z,59.46
2019-06-01T08:17:57.352Z,58.69
2019-06-01T08:20:26.536Z,58.16
2019-06-01T08:22:55.702Z,58.09
2019-06-01T08:25:26.466Z,58.18
2019-06-01T08:27:55.740Z,58.44
2019-06-01T08:30:24.948Z,59.72
2019-06-01T08:32:54.123Z,61.27
2019-06-01T08:35:23.315Z,60.20
2019-06-01T08:37:52.482Z,59.66
2019-06-01T08:40:21.651Z,60.54
2019-06-01T08:42:50.860Z,59.89
2019-06-01T08:45:20.166Z,59.36
2019-06-01T08:47:49.330Z,60.06
2019-06-01T08:50:18.810Z,61.18
2019-06-01T08:52:48.000Z,61.54
2019-06-01T08:55:17.339Z,62.39
2019-06-01T08:57:46.519Z,62.48
2019-06-01T09:00:15.944Z,61.78
2019-06-01T09:02:45.126Z,61.00
2019-06-01T09:05:23.864Z,60.28
2019-06-01T09:07:45.467Z,59.97
2019-06-01T09:10:14.824Z,59.63
2019-06-01T09:12:43.990Z,60.31
2019-06-01T09:15:13.656Z,59.56
2019-06-01T09:17:42.828Z,59.36
2019-06-01T09:20:12.023Z,58.11
2019-06-01T09:22:41.186Z,56.80
2019-06-01T09:25:10.505Z,57.08
2019-06-01T09:27:39.662Z,57.48
2019-06-01T09:30:09.583Z,57.10
2019-06-01T09:32:38.775Z,57.61
2019-06-01T09:35:08.689Z,57.76
2019-06-01T09:37:37.870Z,57.93
2019-06-01T09:40:07.901Z,57.25
2019-06-01T09:42:37.597Z,56.43
2019-06-01T09:45:07.340Z,57.37
2019-06-01T09:47:37.797Z,57.65
2019-06-01T09:50:08.547Z,57.80
2019-06-01T09:52:37.891Z,57.67
2019-06-01T09:55:07.890Z,56.50
2019-06-01T09:57:38.373Z,55.99
2019-06-01T10:00:10.164Z,56.56
2019-06-01T10:02:39.358Z,56.90
2019-06-01T10:05:08.679Z,56.01
2019-06-01T10:07:39.368Z,55.47
2019-06-01T10:10:09.381Z,55.44
2019-06-01T10:12:38.551Z,55.09
2019-06-01T10:15:09.060Z,54.95
2019-06-01T10:17:39.028Z,54.13
2019-06-01T10:20:09.934Z,54.79
2019-06-01T10:22:39.665Z,54.53
2019-06-01T10:25:09.034Z,52.23
2019-06-01T10:27:38.685Z,52.47
2019-06-01T10:30:09.302Z,52.40
2019-06-01T10:32:39.807Z,50.18
2019-06-01T10:35:09.202Z,51.18
2019-06-01T10:37:39.627Z,52.03
2019-06-01T10:40:10.056Z,52.38
2019-06-01T10:42:39.834Z,52.45
2019-06-01T10:45:10.435Z,51.26
2019-06-01T10:47:40.118Z,49.43
2019-06-01T10:50:10.316Z,48.67
2019-06-01T10:52:40.405Z,49.54
2019-06-01T10:55:10.025Z,49.59
2019-06-01T10:57:40.524Z,50.33
2019-06-01T11:00:11.641Z,50.19
2019-06-01T11:02:40.992Z,50.96
2019-06-01T11:05:10.867Z,51.61
2019-06-01T11:07:41.037Z,51.13
2019-06-01T11:10:11.344Z,51.45
2019-06-01T11:12:41.116Z,49.50
2019-06-01T11:15:11.054Z,48.73
2019-06-01T11:17:41.237Z,48.96
2019-06-01T11:20:12.342Z,49.85
2019-06-01T11:22:41.639Z,49.58
2019-06-01T11:25:11.879Z,49.55
2019-06-01T11:27:41.888Z,48.11
2019-06-01T11:30:11.352Z,48.40
2019-06-01T11:32:42.826Z,47.89
2019-06-01T11:35:11.874Z,47.31
2019-06-01T11:37:42.342Z,47.31
2019-06-01T11:40:12.881Z,47.49
2019-06-01T11:42:43.014Z,46.62
2019-06-01T11:45:12.952Z,47.17
2019-06-01T11:47:42.924Z,48.10
2019-06-01T11:50:13.524Z,48.75
2019-06-01T11:53:02.578Z,49.30
2019-06-01T11:55:31.783Z,50.98
2019-06-01T11:58:00.984Z,50.72
2019-06-01T12:00:30.581Z,50.07
2019-06-01T12:02:59.777Z,50.92
2019-06-01T12:05:28.878Z,50.83
2019-06-01T12:07:58.050Z,50.36
2019-06-01T12:10:29.232Z,51.18
2019-06-01T12:12:58.414Z,51.10
2019-06-01T12:15:27.625Z,50.47
2019-06-01T12:17:56.846Z,51.28
2019-06-01T12:20:26.309Z,51.37
2019-06-01T12:22:55.484Z,51.29
2019-06-01T12:25:24.942Z,51.05
2019-06-01T12:27:54.120Z,51.55
2019-06-01T12:30:23.293Z,50.96
2019-06-01T12:32:52.465Z,49.91
2019-06-01T12:35:21.664Z,48.64
2019-06-01T12:38:05.650Z,49.05
2019-06-01T12:40:21.828Z,49.71
2019-06-01T12:42:51.991Z,50.46
2019-06-01T12:45:23.254Z,49.98
2019-06-01T12:47:57.982Z,49.86
2019-06-01T12:50:23.621Z,49.62
2019-06-01T12:52:52.862Z,48.55
2019-06-01T12:55:22.020Z,47.80
2019-06-01T12:57:51.873Z,47.43
2019-06-01T13:00:21.209Z,47.82
2019-06-01T13:03:01.108Z,47.16
2019-06-01T13:05:21.296Z,46.98
2019-06-01T13:07:59.697Z,46.74
2019-06-01T13:10:21.466Z,47.14
2019-06-01T13:12:52.297Z,47.33
2019-06-01T13:15:21.591Z,47.27
2019-06-01T13:17:51.447Z,47.48
2019-06-01T13:20:20.838Z,46.34
2019-06-01T13:22:50.119Z,47.23
2019-06-01T13:25:19.280Z,47.63
2019-06-01T13:27:48.834Z,47.04
2019-06-01T13:30:18.383Z,48.16
2019-06-01T13:32:48.577Z,47.85
2019-06-01T13:35:18.060Z,48.79
2019-06-01T13:37:50.935Z,47.62
2019-06-01T13:40:20.983Z,47.97
2019-06-01T13:42:51.199Z,48.05
2019-06-01T13:45:20.617Z,47.25
2019-06-01T13:47:49.951Z,48.06
2019-06-01T13:50:19.157Z,48.12
2019-06-01T13:52:48.329Z,46.86
2019-06-01T13:55:17.582Z,47.45
2019-06-01T13:57:46.797Z,47.48
2019-06-01T14:00:29.449Z,47.46
2019-06-01T14:02:50.523Z,47.62
2019-06-01T14:05:18.231Z,47.30
2019-06-01T14:07:47.558Z,48.19
2019-06-01T14:10:17.540Z,48.36
2019-06-01T14:12:47.459Z,47.88
2019-06-01T14:15:16.852Z,47.65
2019-06-01T14:17:50.131Z,48.07
2019-06-01T14:20:16.960Z,47.66
2019-06-01T14:22:46.135Z,47.72
2019-06-01T14:25:15.987Z,48.27
2019-06-01T14:27:46.084Z,48.49
2019-06-01T14:30:15.552Z,49.56
2019-06-01T14:32:46.126Z,49.74
2019-06-01T14:35:16.003Z,50.00
2019-06-01T14:37:48.700Z,50.22
2019-06-01T14:40:17.175Z,50.34
2019-06-01T14:42:46.832Z,50.66
2019-06-01T14:45:16.542Z,50.93
2019-06-01T14:47:45.713Z,51.06
2019-06-01T14:50:15.001Z,51.24
2019-06-01T14:52:44.159Z,50.75
2019-06-01T14:55:13.606Z,48.08
2019-06-01T14:57:42.784Z,48.31
2019-06-01T15:00:12.329Z,48.74
2019-06-01T15:02:41.488Z,48.82
2019-06-01T15:05:10.807Z,47.83
2019-06-01T15:07:40.028Z,48.07
2019-06-01T15:10:09.963Z,48.92
2019-06-01T15:12:39.157Z,47.21
2019-06-01T15:15:09.168Z,46.29
2019-06-01T15:17:38.355Z,46.40
2019-06-01T15:20:10.176Z,46.86
2019-06-01T15:22:39.365Z,47.71
2019-06-01T15:25:09.479Z,47.76
2019-06-01T15:27:38.754Z,46.44
2019-06-01T15:30:09.768Z,46.73
2019-06-01T15:32:39.876Z,46.68
2019-06-01T15:35:09.732Z,45.91
2019-06-01T15:37:38.905Z,46.60
2019-06-01T15:40:11.065Z,47.28
2019-06-01T15:42:40.342Z,47.51
2019-06-01T15:45:10.257Z,47.51
2019-06-01T15:47:43.453Z,48.60
2019-06-01T15:50:13.272Z,49.71
2019-06-01T15:52:42.509Z,50.40
2019-06-01T15:55:13.257Z,50.64
2019-06-01T15:57:42.441Z,49.35
2019-06-01T16:00:13.566Z,48.79
2019-06-01T16:02:42.733Z,50.30
2019-06-01T16:05:13.661Z,50.55
2019-06-01T16:07:42.846Z,51.52
2019-06-01T16:10:12.153Z,51.35
2019-06-01T16:12:41.326Z,51.69
2019-06-01T16:15:11.744Z,52.53
2019-06-01T16:17:40.958Z,53.19
2019-06-01T16:20:11.684Z,52.33
2019-06-01T16:22:41.792Z,52.58
2019-06-01T16:25:11.330Z,52.62
2019-06-01T16:27:40.530Z,52.84
2019-06-01T16:30:10.277Z,52.87
2019-06-01T16:32:40.407Z,52.98
2019-06-01T16:35:10.139Z,52.66
2019-06-01T16:37:39.353Z,51.77
2019-06-01T16:40:10.507Z,51.99
2019-06-01T16:42:40.119Z,52.45
2019-06-01T16:45:10.332Z,52.87
2019-06-01T16:47:39.534Z,53.33
2019-06-01T16:50:09.750Z,53.42
2019-06-01T16:52:38.986Z,54.07
2019-06-01T16:55:12.898Z,53.87
2019-06-01T16:57:42.072Z,53.87
2019-06-01T17:00:12.789Z,53.80
2019-06-01T17:02:42.061Z,53.91
2019-06-01T17:05:12.253Z,54.40
2019-06-01T17:07:41.440Z,55.07
2019-06-01T17:10:24.272Z,56.00
2019-06-01T17:12:43.858Z,55.81
2019-06-01T17:15:14.212Z,56.23
2019-06-01T17:17:43.385Z,55.64
2019-06-01T17:20:35.603Z,55.65
2019-06-01T17:23:22.930Z,56.06
2019-06-01T17:25:35.948Z,55.86
2019-06-01T17:28:07.089Z,55.87
2019-06-01T17:30:36.515Z,56.30
2019-06-01T17:33:06.609Z,56.12
2019-06-01T17:35:36.431Z,56.20
2019-06-01T17:38:07.340Z,56.26
2019-06-01T17:40:41.461Z,56.17
2019-06-01T17:43:08.773Z,56.19
2019-06-01T17:45:38.154Z,56.15
2019-06-01T17:48:21.642Z,56.23
2019-06-01T17:50:38.656Z,56.05
2019-06-01T17:53:08.857Z,56.04
2019-06-01T17:55:39.291Z,55.96
2019-06-01T17:58:10.038Z,56.26
2019-06-01T18:00:40.138Z,56.37
2019-06-01T18:03:10.067Z,56.65
2019-06-01T18:05:39.632Z,56.26
2019-06-01T18:08:10.197Z,56.26
2019-06-01T18:10:52.546Z,56.33
2019-06-01T18:13:10.799Z,56.72
2019-06-01T18:15:39.978Z,57.08
2019-06-01T18:18:10.369Z,56.94
2019-06-01T18:20:41.715Z,57.29
2019-06-01T18:23:11.412Z,57.55
2019-06-01T18:25:41.234Z,57.63
2019-06-01T18:28:16.169Z,57.20
2019-06-01T18:30:41.470Z,58.07
2019-06-01T18:33:11.190Z,57.72
2019-06-01T18:35:40.570Z,57.41
2019-06-01T18:38:09.922Z,57.94
2019-06-01T18:40:39.182Z,57.68
2019-06-01T18:43:12.078Z,57.42
2019-06-01T18:45:41.306Z,57.92
2019-06-01T18:48:11.070Z,57.85
2019-06-01T18:50:41.948Z,57.58
2019-06-01T18:53:12.156Z,57.54
2019-06-01T18:55:41.415Z,57.48
2019-06-01T18:58:12.442Z,57.33
2019-06-01T19:00:42.933Z,57.75
2019-06-01T19:03:13.682Z,57.86
2019-06-01T19:05:44.181Z,57.85
2019-06-01T19:08:13.901Z,58.12
2019-06-01T19:10:44.187Z,58.21
2019-06-01T19:13:14.000Z,58.61
2019-06-01T19:15:43.384Z,59.51
2019-06-01T19:18:12.777Z,60.02
2019-06-01T19:20:41.931Z,60.49
2019-06-01T19:23:12.670Z,60.74
2019-06-01T19:25:42.201Z,60.52
2019-06-01T19:28:13.122Z,60.42
2019-06-01T19:30:44.063Z,60.21
2019-06-01T19:33:16.866Z,60.39
2019-06-01T19:35:44.505Z,60.15
2019-06-01T19:38:13.734Z,60.65
2019-06-01T19:40:43.069Z,60.57
2019-06-01T19:43:13.378Z,60.53
2019-06-01T19:45:42.993Z,60.31
2019-06-01T19:48:12.474Z,60.09
2019-06-01T19:50:42.497Z,59.85
2019-06-01T19:53:12.693Z,59.89
2019-06-01T19:55:41.980Z,60.12
2019-06-01T19:58:12.167Z,60.32
2019-06-01T20:00:41.684Z,60.22
2019-06-01T20:03:10.879Z,60.49
2019-06-01T20:05:40.113Z,61.01
2019-06-01T20:08:09.875Z,61.21
2019-06-01T20:10:39.422Z,61.00
2019-06-01T20:13:08.645Z,61.23
2019-06-01T20:15:37.925Z,61.47
2019-06-01T20:18:07.175Z,61.67
2019-06-01T20:20:36.508Z,61.58
2019-06-01T20:23:05.703Z,61.60
2019-06-01T20:25:34.956Z,61.52
2019-06-01T20:28:04.146Z,61.40
2019-06-01T20:30:33.324Z,61.53
2019-06-01T20:33:03.095Z,61.97
2019-06-01T20:35:32.716Z,61.91
2019-06-01T20:38:03.195Z,62.15
2019-06-01T20:40:32.378Z,62.12
2019-06-01T20:43:02.155Z,62.21
2019-06-01T20:45:31.609Z,62.05
2019-06-01T20:48:01.020Z,62.51
2019-06-01T20:50:31.414Z,62.63
2019-06-01T20:53:00.890Z,63.01
2019-06-01T20:55:30.251Z,62.81
2019-06-01T20:57:59.445Z,63.19
2019-06-01T21:00:31.780Z,63.25
2019-06-01T21:02:59.653Z,63.56
2019-06-01T21:05:28.841Z,63.15
2019-06-01T21:07:58.205Z,63.44
2019-06-01T21:10:27.418Z,63.36
2019-06-01T21:12:56.601Z,63.61
2019-06-01T21:15:25.788Z,63.48
2019-06-01T21:17:54.994Z,63.71
2019-06-01T21:20:28.472Z,63.77
2019-06-01T21:22:55.168Z,64.11
2019-06-01T21:25:25.389Z,64.00
2019-06-01T21:27:54.603Z,64.08
2019-06-01T21:30:24.634Z,64.31
2019-06-01T21:32:54.756Z,64.52
2019-06-01T21:35:25.205Z,64.45
2019-06-01T21:37:54.743Z,64.85
2019-06-01T21:40:23.965Z,64.83
2019-06-01T21:43:06.874Z,64.76
2019-06-01T21:45:24.147Z,64.91
2019-06-01T21:47:53.353Z,64.55
2019-06-01T21:50:23.853Z,64.82
2019-06-01T21:52:53.224Z,64.95
2019-06-01T21:55:22.414Z,65.20
2019-06-01T21:57:51.592Z,65.45
2019-06-01T22:00:40.234Z,65.85
2019-06-01T22:03:09.418Z,65.72
2019-06-01T22:05:38.604Z,66.09
2019-06-01T22:08:07.797Z,66.03
2019-06-01T22:10:36.995Z,66.17
2019-06-01T22:13:18.146Z,66.01
2019-06-01T22:15:37.100Z,66.56
2019-06-01T22:18:06.297Z,66.80
2019-06-01T22:20:35.526Z,67.01
2019-06-01T22:23:04.852Z,66.99
2019-06-01T22:25:34.042Z,66.78
2019-06-01T22:28:03.252Z,67.39
2019-06-01T22:30:32.460Z,67.19
2019-06-01T22:33:01.647Z,67.42
2019-06-01T22:35:30.837Z,67.74
2019-06-01T22:38:00.028Z,67.68
2019-06-01T22:40:29.479Z,67.92
2019-06-01T22:42:58.807Z,67.81
2019-06-01T22:45:29.525Z,67.83
2019-06-01T22:48:16.771Z,67.62
2019-06-01T22:50:45.964Z,67.78
2019-06-01T22:53:15.162Z,67.78
2019-06-01T22:55:44.421Z,67.84
2019-06-01T22:58:13.609Z,67.57
2019-06-01T23:00:42.840Z,67.78
2019-06-01T23:03:12.021Z,68.00
2019-06-01T23:05:41.227Z,67.88
2019-06-01T23:08:10.513Z,67.79
2019-06-01T23:10:39.710Z,67.95
2019-06-01T23:13:08.892Z,68.29
2019-06-01T23:15:38.071Z,68.43
2019-06-01T23:18:07.298Z,68.35
2019-06-01T23:20:36.439Z,68.36
2019-06-01T23:23:05.919Z,68.62
2019-06-01T23:25:35.106Z,68.60
2019-06-01T23:28:04.288Z,68.79
2019-06-01T23:30:33.469Z,68.78
2019-06-01T23:33:02.653Z,68.89
2019-06-01T23:35:32.764Z,69.01
2019-06-01T23:38:02.033Z,68.94
2019-06-01T23:40:31.212Z,69.01
2019-06-01T23:43:00.410Z,69.33
2019-06-01T23:45:30.838Z,69.11
2019-06-01T23:48:00.314Z,69.42
2019-06-01T23:50:29.500Z,69.39
2019-06-01T23:53:12.776Z,69.72
2019-06-01T23:55:29.932Z,69.82
2019-06-01T23:58:01.138Z,70.09
